Terminal Aerodrome Forecast
Issued by NWS

Home | Current Version | Previous Version | Text Only | Print | Product List | Glossary On
Versions: 1 2 3 4 5 6 7 8 9 10 11 12 13 14 15
000
FTUS46 KMTR 220500
TAFSNS
TAF
KSNS 220520Z 2206/2306 24004KT P6SM BKN015
     FM221000 24004KT P6SM OVC010
     FM221600 27006KT P6SM BKN020
     FM222100 27010KT P6SM SCT030 BKN060
     FM230400 27005KT P6SM SCT010 BKN100=

USA.gov is the U.S. government's official web portal to all federal, state and local government web resources and services.